sensor_id;sensor_type;location;lat;lon;timestamp;pressure;altitude;pressure_sealevel;temperature;humidity
79709;BME280;69203;48.964;9.118;2024-03-08T00:00:27;98755.88;;;2.35;100.00
79709;BME280;69203;48.964;9.118;2024-03-08T00:01:28;98753.47;;;2.31;100.00
79709;BME280;69203;48.964;9.118;2024-03-08T00:02:28;98768.03;;;2.33;100.00
79709;BME280;69203;48.964;9.118;2024-03-08T00:03:29;98750.75;;;2.34;100.00
79709;BME280;69203;48.964;9.118;2024-03-08T00:04:30;98763.78;;;2.32;100.00
79709;BME280;69203;48.964;9.118;2024-03-08T00:05:31;98755.31;;;2.27;100.00
79709;BME280;69203;48.964;9.118;2024-03-08T00:06:32;98756.81;;;2.33;100.00
79709;BME280;69203;48.964;9.118;2024-03-08T00:07:32;98760.38;;;2.30;100.00
79709;BME280;69203;48.964;9.118;2024-03-08T00:08:33;98737.44;;;2.20;100.00
79709;BME280;69203;48.964;9.118;2024-03-08T00:09:33;98756.91;;;2.31;100.00
79709;BME280;69203;48.964;9.118;2024-03-08T00:10:35;98762.06;;;2.31;100.00
79709;BME280;69203;48.964;9.118;2024-03-08T00:11:35;98758.72;;;2.28;100.00
79709;BME280;69203;48.964;9.118;2024-03-08T00:12:39;98745.38;;;2.15;100.00
79709;BME280;69203;48.964;9.118;2024-03-08T00:13:42;98758.50;;;2.34;100.00
79709;BME280;69203;48.964;9.118;2024-03-08T00:14:43;98760.25;;;2.33;100.00
79709;BME280;69203;48.964;9.118;2024-03-08T00:15:45;98739.19;;;2.19;100.00
79709;BME280;69203;48.964;9.118;2024-03-08T00:16:45;98762.13;;;2.30;100.00
79709;BME280;69203;48.964;9.118;2024-03-08T00:17:46;98743.31;;;2.25;100.00
79709;BME280;69203;48.964;9.118;2024-03-08T00:18:46;98749.50;;;2.21;100.00
79709;BME280;69203;48.964;9.118;2024-03-08T00:19:47;98744.13;;;2.27;100.00
79709;BME280;69203;48.964;9.118;2024-03-08T00:20:48;98734.81;;;2.21;100.00
79709;BME280;69203;48.964;9.118;2024-03-08T00:21:49;98755.41;;;2.24;100.00
79709;BME280;69203;48.964;9.118;2024-03-08T00:22:50;98755.25;;;2.29;100.00
79709;BME280;69203;48.964;9.118;2024-03-08T00:23:51;98757.16;;;2.24;100.00
79709;BME280;69203;48.964;9.118;2024-03-08T00:24:52;98734.81;;;2.21;100.00
79709;BME280;69203;48.964;9.118;2024-03-08T00:25:52;98740.84;;;2.22;100.00
79709;BME280;69203;48.964;9.118;2024-03-08T00:26:52;98754.56;;;2.24;100.00
79709;BME280;69203;48.964;9.118;2024-03-08T00:27:54;98746.91;;;2.21;100.00
79709;BME280;69203;48.964;9.118;2024-03-08T00:28:57;98751.94;;;2.25;100.00
79709;BME280;69203;48.964;9.118;2024-03-08T00:29:58;98740.94;;;2.19;100.00
79709;BME280;69203;48.964;9.118;2024-03-08T00:30:58;98737.78;;;2.10;100.00
79709;BME280;69203;48.964;9.118;2024-03-08T00:31:59;98747.94;;;2.17;100.00
79709;BME280;69203;48.964;9.118;2024-03-08T00:33:00;98742.97;;;2.10;100.00
79709;BME280;69203;48.964;9.118;2024-03-08T00:34:00;98741.06;;;2.16;100.00
79709;BME280;69203;48.964;9.118;2024-03-08T00:35:00;98729.25;;;2.07;100.00
79709;BME280;69203;48.964;9.118;2024-03-08T00:36:01;98749.81;;;2.11;100.00
79709;BME280;69203;48.964;9.118;2024-03-08T00:37:03;98732.91;;;2.01;100.00
79709;BME280;69203;48.964;9.118;2024-03-08T00:38:04;98745.84;;;2.01;100.00
79709;BME280;69203;48.964;9.118;2024-03-08T00:39:04;98743.38;;;1.98;100.00
79709;BME280;69203;48.964;9.118;2024-03-08T00:40:08;98747.22;;;2.11;100.00
79709;BME280;69203;48.964;9.118;2024-03-08T00:41:09;98743.38;;;1.98;100.00
79709;BME280;69203;48.964;9.118;2024-03-08T00:42:09;98744.22;;;1.99;100.00
79709;BME280;69203;48.964;9.118;2024-03-08T00:43:10;98735.13;;;1.87;100.00
79709;BME280;69203;48.964;9.118;2024-03-08T00:44:10;98737.69;;;1.89;100.00
79709;BME280;69203;48.964;9.118;2024-03-08T00:45:11;98726.28;;;1.94;100.00
79709;BME280;69203;48.964;9.118;2024-03-08T00:46:11;98727.28;;;1.90;100.00
79709;BME280;69203;48.964;9.118;2024-03-08T00:47:12;98737.63;;;1.90;100.00
79709;BME280;69203;48.964;9.118;2024-03-08T00:48:12;98742.56;;;1.96;100.00
79709;BME280;69203;48.964;9.118;2024-03-08T00:49:13;98727.91;;;1.97;100.00
79709;BME280;69203;48.964;9.118;2024-03-08T00:50:13;98723.69;;;1.94;100.00
79709;BME280;69203;48.964;9.118;2024-03-08T00:51:13;98734.94;;;1.93;100.00
79709;BME280;69203;48.964;9.118;2024-03-08T00:52:15;98725.63;;;1.88;100.00
79709;BME280;69203;48.964;9.118;2024-03-08T00:53:15;98706.03;;;1.81;100.00
79709;BME280;69203;48.964;9.118;2024-03-08T00:54:17;98728.69;;;1.99;100.00
79709;BME280;69203;48.964;9.118;2024-03-08T00:55:17;98704.38;;;1.80;100.00
79709;BME280;69203;48.964;9.118;2024-03-08T00:56:17;98723.03;;;1.88;100.00
79709;BME280;69203;48.964;9.118;2024-03-08T00:57:18;98720.56;;;1.85;100.00
79709;BME280;69203;48.964;9.118;2024-03-08T00:58:18;98717.22;;;1.81;100.00
79709;BME280;69203;48.964;9.118;2024-03-08T00:59:20;98707.09;;;1.75;100.00
79709;BME280;69203;48.964;9.118;2024-03-08T01:00:20;98717.38;;;1.77;100.00
79709;BME280;69203;48.964;9.118;2024-03-08T01:01:22;98707.59;;;1.60;100.00
79709;BME280;69203;48.964;9.118;2024-03-08T01:02:22;98691.31;;;1.58;100.00
79709;BME280;69203;48.964;9.118;2024-03-08T01:03:23;98700.59;;;1.63;100.00
79709;BME280;69203;48.964;9.118;2024-03-08T01:04:23;98709.16;;;1.65;100.00
79709;BME280;69203;48.964;9.118;2024-03-08T01:05:26;98694.50;;;1.64;100.00
79709;BME280;69203;48.964;9.118;2024-03-08T01:06:26;98704.63;;;1.72;100.00
79709;BME280;69203;48.964;9.118;2024-03-08T01:07:27;98714.13;;;1.72;100.00
79709;BME280;69203;48.964;9.118;2024-03-08T01:08:28;98694.00;;;1.55;100.00
79709;BME280;69203;48.964;9.118;2024-03-08T01:09:28;98695.81;;;1.53;100.00
79709;BME280;69203;48.964;9.118;2024-03-08T01:10:29;98687.00;;;1.58;100.00
79709;BME280;69203;48.964;9.118;2024-03-08T01:11:29;98705.63;;;1.68;100.00
79709;BME280;69203;48.964;9.118;2024-03-08T01:12:29;98700.38;;;1.69;100.00
79709;BME280;69203;48.964;9.118;2024-03-08T01:13:30;98698.06;;;1.62;100.00
79709;BME280;69203;48.964;9.118;2024-03-08T01:14:31;98699.47;;;1.46;100.00
79709;BME280;69203;48.964;9.118;2024-03-08T01:15:31;98692.44;;;1.49;100.00
79709;BME280;69203;48.964;9.118;2024-03-08T01:16:32;98692.03;;;1.37;100.00
79709;BME280;69203;48.964;9.118;2024-03-08T01:17:33;98690.03;;;1.45;100.00
79709;BME280;69203;48.964;9.118;2024-03-08T01:18:33;98696.66;;;1.53;100.00
79709;BME280;69203;48.964;9.118;2024-03-08T01:19:35;98680.47;;;1.47;100.00
79709;BME280;69203;48.964;9.118;2024-03-08T01:20:36;98698.22;;;1.57;100.00
79709;BME280;69203;48.964;9.118;2024-03-08T01:21:36;98694.09;;;1.52;100.00
79709;BME280;69203;48.964;9.118;2024-03-08T01:22:37;98683.06;;;1.47;100.00
79709;BME280;69203;48.964;9.118;2024-03-08T01:23:37;98687.47;;;1.43;100.00
79709;BME280;69203;48.964;9.118;2024-03-08T01:24:38;98677.38;;;1.37;100.00
79709;BME280;69203;48.964;9.118;2024-03-08T01:25:39;98692.53;;;1.48;100.00
79709;BME280;69203;48.964;9.118;2024-03-08T01:26:41;98686.53;;;1.46;100.00
79709;BME280;69203;48.964;9.118;2024-03-08T01:27:41;98682.56;;;1.36;100.00
79709;BME280;69203;48.964;9.118;2024-03-08T01:28:42;98687.22;;;1.26;100.00
79709;BME280;69203;48.964;9.118;2024-03-08T01:29:42;98684.66;;;1.24;100.00
79709;BME280;69203;48.964;9.118;2024-03-08T01:30:43;98684.81;;;1.20;100.00
79709;BME280;69203;48.964;9.118;2024-03-08T01:31:44;98682.25;;;1.20;100.00
79709;BME280;69203;48.964;9.118;2024-03-08T01:32:44;98680.38;;;1.23;100.00
79709;BME280;69203;48.964;9.118;2024-03-08T01:33:45;98675.69;;;1.10;100.00
79709;BME280;69203;48.964;9.118;2024-03-08T01:34:46;98679.03;;;1.12;100.00
79709;BME280;69203;48.964;9.118;2024-03-08T01:35:46;98675.59;;;1.11;100.00
79709;BME280;69203;48.964;9.118;2024-03-08T01:36:47;98677.41;;;1.09;100.00
79709;BME280;69203;48.964;9.118;2024-03-08T01:37:47;98672.13;;;1.12;100.00
79709;BME280;69203;48.964;9.118;2024-03-08T01:38:50;98669.66;;;1.09;100.00
79709;BME280;69203;48.964;9.118;2024-03-08T01:39:50;98666.75;;;1.18;100.00
79709;BME280;69203;48.964;9.118;2024-03-08T01:40:51;98655.72;;;1.13;100.00
79709;BME280;69203;48.964;9.118;2024-03-08T01:41:51;98659.69;;;1.23;100.00
79709;BME280;69203;48.964;9.118;2024-03-08T01:42:51;98652.44;;;1.08;100.00
79709;BME280;69203;48.964;9.118;2024-03-08T01:43:53;98664.88;;;1.23;100.00
79709;BME280;69203;48.964;9.118;2024-03-08T01:44:57;98663.19;;;1.22;100.00
79709;BME280;69203;48.964;9.118;2024-03-08T01:45:58;98653.09;;;1.15;100.00
79709;BME280;69203;48.964;9.118;2024-03-08T01:47:05;98652.69;;;1.27;100.00
79709;BME280;69203;48.964;9.118;2024-03-08T01:48:05;98652.63;;;1.28;100.00
79709;BME280;69203;48.964;9.118;2024-03-08T01:49:06;98658.16;;;1.18;100.00
79709;BME280;69203;48.964;9.118;2024-03-08T01:50:07;98649.97;;;1.05;100.00
79709;BME280;69203;48.964;9.118;2024-03-08T01:51:08;98655.63;;;1.16;100.00
79709;BME280;69203;48.964;9.118;2024-03-08T01:52:11;98652.66;;;1.02;100.00
79709;BME280;69203;48.964;9.118;2024-03-08T01:53:12;98653.16;;;1.13;100.00
79709;BME280;69203;48.964;9.118;2024-03-08T01:54:14;98636.59;;;0.93;100.00
79709;BME280;69203;48.964;9.118;2024-03-08T01:55:15;98633.88;;;0.97;100.00
79709;BME280;69203;48.964;9.118;2024-03-08T01:56:17;98628.88;;;0.91;100.00
79709;BME280;69203;48.964;9.118;2024-03-08T01:57:18;98648.28;;;1.04;100.00
79709;BME280;69203;48.964;9.118;2024-03-08T01:58:19;98637.09;;;1.04;100.00
79709;BME280;69203;48.964;9.118;2024-03-08T01:59:22;98636.28;;;1.02;100.00
79709;BME280;69203;48.964;9.118;2024-03-08T02:00:23;98645.41;;;1.13;100.00
79709;BME280;69203;48.964;9.118;2024-03-08T02:01:25;98640.19;;;1.15;100.00
79709;BME280;69203;48.964;9.118;2024-03-08T02:02:25;98639.38;;;1.13;100.00
79709;BME280;69203;48.964;9.118;2024-03-08T02:03:27;98641.06;;;1.14;100.00
79709;BME280;69203;48.964;9.118;2024-03-08T02:04:28;98631.72;;;1.10;100.00
79709;BME280;69203;48.964;9.118;2024-03-08T02:05:31;98638.44;;;1.15;100.00
79709;BME280;69203;48.964;9.118;2024-03-08T02:06:33;98622.69;;;0.97;100.00
79709;BME280;69203;48.964;9.118;2024-03-08T02:07:34;98615.13;;;0.91;100.00
79709;BME280;69203;48.964;9.118;2024-03-08T02:08:35;98636.38;;;1.00;100.00
79709;BME280;69203;48.964;9.118;2024-03-08T02:09:35;98629.50;;;0.99;100.00
79709;BME280;69203;48.964;9.118;2024-03-08T02:10:36;98614.63;;;0.79;100.00
79709;BME280;69203;48.964;9.118;2024-03-08T02:11:36;98629.16;;;0.83;100.00
79709;BME280;69203;48.964;9.118;2024-03-08T02:12:38;98623.84;;;0.88;100.00
79709;BME280;69203;48.964;9.118;2024-03-08T02:13:38;98610.38;;;0.78;100.00
79709;BME280;69203;48.964;9.118;2024-03-08T02:14:39;98610.53;;;0.74;100.00
79709;BME280;69203;48.964;9.118;2024-03-08T02:15:53;98627.59;;;0.78;100.00
79709;BME280;69203;48.964;9.118;2024-03-08T02:16:53;98614.78;;;0.75;100.00
79709;BME280;69203;48.964;9.118;2024-03-08T02:17:54;98614.69;;;0.78;100.00
79709;BME280;69203;48.964;9.118;2024-03-08T02:18:54;98619.34;;;0.93;100.00
79709;BME280;69203;48.964;9.118;2024-03-08T02:19:56;98603.13;;;0.90;100.00
79709;BME280;69203;48.964;9.118;2024-03-08T02:20:58;98610.56;;;0.99;100.00
79709;BME280;69203;48.964;9.118;2024-03-08T02:21:59;98621.78;;;0.98;100.00
79709;BME280;69203;48.964;9.118;2024-03-08T02:23:00;98614.91;;;0.97;100.00
79709;BME280;69203;48.964;9.118;2024-03-08T02:24:01;98610.19;;;0.84;100.00
79709;BME280;69203;48.964;9.118;2024-03-08T02:25:02;98604.28;;;0.79;100.00
79709;BME280;69203;48.964;9.118;2024-03-08T02:26:03;98612.03;;;0.79;100.00
79709;BME280;69203;48.964;9.118;2024-03-08T02:27:04;98595.09;;;0.71;100.00
79709;BME280;69203;48.964;9.118;2024-03-08T02:28:05;98603.69;;;0.71;100.00
79709;BME280;69203;48.964;9.118;2024-03-08T02:29:06;98612.09;;;0.78;100.00
79709;BME280;69203;48.964;9.118;2024-03-08T02:30:09;98599.72;;;0.61;100.00
79709;BME280;69203;48.964;9.118;2024-03-08T02:31:11;98588.66;;;0.58;100.00
79709;BME280;69203;48.964;9.118;2024-03-08T02:32:12;98577.81;;;0.47;100.00
79709;BME280;69203;48.964;9.118;2024-03-08T02:33:17;98599.41;;;0.70;100.00
79709;BME280;69203;48.964;9.118;2024-03-08T02:34:17;98595.25;;;0.66;100.00
79709;BME280;69203;48.964;9.118;2024-03-08T02:35:18;98594.56;;;0.61;100.00
79709;BME280;69203;48.964;9.118;2024-03-08T02:36:18;98589.38;;;0.61;100.00
79709;BME280;69203;48.964;9.118;2024-03-08T02:37:18;98585.56;;;0.73;100.00
79709;BME280;69203;48.964;9.118;2024-03-08T02:38:21;98589.00;;;0.73;100.00
79709;BME280;69203;48.964;9.118;2024-03-08T02:39:21;98599.22;;;0.76;100.00
79709;BME280;69203;48.964;9.118;2024-03-08T02:40:22;98583.00;;;0.73;100.00
79709;BME280;69203;48.964;9.118;2024-03-08T02:41:22;98588.94;;;0.75;100.00
79709;BME280;69203;48.964;9.118;2024-03-08T02:42:23;98587.28;;;0.74;100.00
79709;BME280;69203;48.964;9.118;2024-03-08T02:43:23;98586.06;;;0.84;100.00
79709;BME280;69203;48.964;9.118;2024-03-08T02:44:24;98585.31;;;0.80;100.00
79709;BME280;69203;48.964;9.118;2024-03-08T02:45:24;98593.59;;;0.90;100.00
79709;BME280;69203;48.964;9.118;2024-03-08T02:46:25;98591.47;;;0.76;100.00
79709;BME280;69203;48.964;9.118;2024-03-08T02:47:26;98594.53;;;0.89;100.00
79709;BME280;69203;48.964;9.118;2024-03-08T02:48:27;98589.97;;;0.69;100.00
79709;BME280;69203;48.964;9.118;2024-03-08T02:49:27;98594.06;;;0.76;100.00
79709;BME280;69203;48.964;9.118;2024-03-08T02:50:28;98599.34;;;0.73;100.00
79709;BME280;69203;48.964;9.118;2024-03-08T02:51:29;98585.75;;;0.67;100.00
79709;BME280;69203;48.964;9.118;2024-03-08T02:52:29;98601.00;;;0.74;100.00
79709;BME280;69203;48.964;9.118;2024-03-08T02:53:30;98590.78;;;0.71;100.00
79709;BME280;69203;48.964;9.118;2024-03-08T02:54:32;98591.59;;;0.73;100.00
79709;BME280;69203;48.964;9.118;2024-03-08T02:55:32;98588.09;;;0.74;100.00
79709;BME280;69203;48.964;9.118;2024-03-08T02:56:35;98592.81;;;0.62;100.00
79709;BME280;69203;48.964;9.118;2024-03-08T02:57:36;98590.97;;;0.65;100.00
79709;BME280;69203;48.964;9.118;2024-03-08T02:58:37;98591.34;;;0.53;100.00
79709;BME280;69203;48.964;9.118;2024-03-08T02:59:37;98598.72;;;0.37;100.00
79709;BME280;69203;48.964;9.118;2024-03-08T03:00:40;98595.59;;;0.28;100.00
79709;BME280;69203;48.964;9.118;2024-03-08T03:01:41;98587.06;;;0.26;100.00
79709;BME280;69203;48.964;9.118;2024-03-08T03:02:41;98590.06;;;0.40;100.00
79709;BME280;69203;48.964;9.118;2024-03-08T03:03:43;98590.91;;;0.40;100.00
79709;BME280;69203;48.964;9.118;2024-03-08T03:04:44;98588.41;;;0.37;100.00
79709;BME280;69203;48.964;9.118;2024-03-08T03:05:44;98569.50;;;0.37;100.00
79709;BME280;69203;48.964;9.118;2024-03-08T03:06:45;98564.38;;;0.35;100.00
79709;BME280;69203;48.964;9.118;2024-03-08T03:07:46;98579.97;;;0.59;100.00
79709;BME280;69203;48.964;9.118;2024-03-08T03:08:46;98563.00;;;0.52;100.00
79709;BME280;69203;48.964;9.118;2024-03-08T03:09:47;98580.78;;;0.61;100.00
79709;BME280;69203;48.964;9.118;2024-03-08T03:10:48;98573.94;;;0.60;100.00
79709;BME280;69203;48.964;9.118;2024-03-08T03:11:48;98579.03;;;0.63;100.00
79709;BME280;69203;48.964;9.118;2024-03-08T03:12:48;98574.09;;;0.55;100.00
79709;BME280;69203;48.964;9.118;2024-03-08T03:13:49;98574.13;;;0.54;100.00
79709;BME280;69203;48.964;9.118;2024-03-08T03:14:49;98583.31;;;0.36;100.00
79709;BME280;69203;48.964;9.118;2024-03-08T03:15:50;98580.16;;;0.26;100.00
79709;BME280;69203;48.964;9.118;2024-03-08T03:16:51;98585.94;;;0.34;100.00
79709;BME280;69203;48.964;9.118;2024-03-08T03:17:52;98571.69;;;0.21;100.00
79709;BME280;69203;48.964;9.118;2024-03-08T03:18:52;98564.91;;;0.19;100.00
79709;BME280;69203;48.964;9.118;2024-03-08T03:19:52;98586.81;;;0.33;100.00
79709;BME280;69203;48.964;9.118;2024-03-08T03:20:53;98575.03;;;0.25;100.00
79709;BME280;69203;48.964;9.118;2024-03-08T03:21:53;98577.28;;;0.08;100.00
79709;BME280;69203;48.964;9.118;2024-03-08T03:22:54;98564.41;;;0.06;100.00
79709;BME280;69203;48.964;9.118;2024-03-08T03:23:56;98552.59;;;-0.01;100.00
79709;BME280;69203;48.964;9.118;2024-03-08T03:24:59;98560.28;;;0.00;100.00
79709;BME280;69203;48.964;9.118;2024-03-08T03:26:01;98572.66;;;0.19;100.00
79709;BME280;69203;48.964;9.118;2024-03-08T03:27:02;98554.56;;;0.19;100.00
79709;BME280;69203;48.964;9.118;2024-03-08T03:28:10;98567.66;;;0.40;100.00
79709;BME280;69203;48.964;9.118;2024-03-08T03:29:14;98557.63;;;0.31;100.00
79709;BME280;69203;48.964;9.118;2024-03-08T03:30:16;98554.81;;;0.39;100.00
79709;BME280;69203;48.964;9.118;2024-03-08T03:31:21;98556.38;;;0.43;100.00
79709;BME280;69203;48.964;9.118;2024-03-08T03:32:24;98567.06;;;0.59;100.00
79709;BME280;69203;48.964;9.118;2024-03-08T03:33:25;98564.78;;;0.50;100.00
79709;BME280;69203;48.964;9.118;2024-03-08T03:34:25;98565.28;;;0.34;100.00
79709;BME280;69203;48.964;9.118;2024-03-08T03:35:26;98555.59;;;0.41;100.00
79709;BME280;69203;48.964;9.118;2024-03-08T03:36:27;98554.84;;;0.37;100.00
79709;BME280;69203;48.964;9.118;2024-03-08T03:37:28;98549.91;;;0.31;100.00
79709;BME280;69203;48.964;9.118;2024-03-08T03:38:28;98559.13;;;0.38;100.00
79709;BME280;69203;48.964;9.118;2024-03-08T03:39:29;98562.59;;;0.37;100.00
79709;BME280;69203;48.964;9.118;2024-03-08T03:40:35;98557.53;;;0.34;100.00
79709;BME280;69203;48.964;9.118;2024-03-08T03:41:35;98558.88;;;0.46;100.00
79709;BME280;69203;48.964;9.118;2024-03-08T03:42:36;98554.13;;;0.32;100.00
79709;BME280;69203;48.964;9.118;2024-03-08T03:43:38;98498.13;;;0.08;100.00
79709;BME280;69203;48.964;9.118;2024-03-08T03:44:41;98559.59;;;0.51;100.00
79709;BME280;69203;48.964;9.118;2024-03-08T03:45:43;98557.03;;;0.50;100.00
79709;BME280;69203;48.964;9.118;2024-03-08T03:46:43;98559.66;;;0.48;100.00
79709;BME280;69203;48.964;9.118;2024-03-08T03:47:44;98540.03;;;0.42;100.00
79709;BME280;69203;48.964;9.118;2024-03-08T03:48:44;98559.28;;;0.60;100.00
79709;BME280;69203;48.964;9.118;2024-03-08T03:49:45;98557.34;;;0.67;100.00
79709;BME280;69203;48.964;9.118;2024-03-08T03:50:45;98562.81;;;0.58;100.00
79709;BME280;69203;48.964;9.118;2024-03-08T03:51:46;98563.88;;;0.52;100.00
79709;BME280;69203;48.964;9.118;2024-03-08T03:52:47;98554.38;;;0.53;100.00
79709;BME280;69203;48.964;9.118;2024-03-08T03:53:47;98545.88;;;0.49;100.00
79709;BME280;69203;48.964;9.118;2024-03-08T03:54:48;98562.06;;;0.54;100.00
79709;BME280;69203;48.964;9.118;2024-03-08T03:55:49;98561.06;;;0.58;100.00
79709;BME280;69203;48.964;9.118;2024-03-08T03:56:49;98546.00;;;0.45;100.00
79709;BME280;69203;48.964;9.118;2024-03-08T03:57:52;98562.22;;;0.50;100.00
79709;BME280;69203;48.964;9.118;2024-03-08T03:58:53;98552.88;;;0.46;100.00
79709;BME280;69203;48.964;9.118;2024-03-08T03:59:53;98558.63;;;0.54;100.00
79709;BME280;69203;48.964;9.118;2024-03-08T04:00:54;98558.59;;;0.55;100.00
79709;BME280;69203;48.964;9.118;2024-03-08T04:01:54;98558.00;;;0.47;100.00
79709;BME280;69203;48.964;9.118;2024-03-08T04:02:54;98558.63;;;0.54;100.00
79709;BME280;69203;48.964;9.118;2024-03-08T04:03:59;98558.47;;;0.58;100.00
79709;BME280;69203;48.964;9.118;2024-03-08T04:05:00;98559.13;;;0.65;100.00
79709;BME280;69203;48.964;9.118;2024-03-08T04:06:00;98554.56;;;0.47;100.00
79709;BME280;69203;48.964;9.118;2024-03-08T04:07:02;98562.06;;;0.54;100.00
79709;BME280;69203;48.964;9.118;2024-03-08T04:08:03;98566.19;;;0.60;100.00
79709;BME280;69203;48.964;9.118;2024-03-08T04:09:03;98562.81;;;0.58;100.00
79709;BME280;69203;48.964;9.118;2024-03-08T04:10:06;98561.06;;;0.58;100.00
79709;BME280;69203;48.964;9.118;2024-03-08T04:11:07;98556.38;;;0.43;100.00
79709;BME280;69203;48.964;9.118;2024-03-08T04:12:08;98557.88;;;0.50;100.00
79709;BME280;69203;48.964;9.118;2024-03-08T04:13:09;98566.53;;;0.49;100.00
79709;BME280;69203;48.964;9.118;2024-03-08T04:14:10;98557.19;;;0.45;100.00
79709;BME280;69203;48.964;9.118;2024-03-08T04:15:14;98562.47;;;0.42;100.00
79709;BME280;69203;48.964;9.118;2024-03-08T04:16:15;98566.38;;;0.54;100.00
79709;BME280;69203;48.964;9.118;2024-03-08T04:17:15;98527.81;;;0.21;100.00
79709;BME280;69203;48.964;9.118;2024-03-08T04:18:16;98569.09;;;0.49;100.00
79709;BME280;69203;48.964;9.118;2024-03-08T04:19:16;98561.78;;;0.37;100.00
79709;BME280;69203;48.964;9.118;2024-03-08T04:20:17;98563.53;;;0.35;100.00
79709;BME280;69203;48.964;9.118;2024-03-08T04:21:17;98556.59;;;0.37;100.00
79709;BME280;69203;48.964;9.118;2024-03-08T04:22:20;98553.03;;;0.41;100.00
79709;BME280;69203;48.964;9.118;2024-03-08T04:23:20;98553.09;;;0.38;100.00
79709;BME280;69203;48.964;9.118;2024-03-08T04:24:21;98557.34;;;0.40;100.00
79709;BME280;69203;48.964;9.118;2024-03-08T04:25:21;98552.13;;;0.42;100.00
79709;BME280;69203;48.964;9.118;2024-03-08T04:26:22;98545.28;;;0.41;100.00
79709;BME280;69203;48.964;9.118;2024-03-08T04:27:23;98540.03;;;0.42;100.00
79709;BME280;69203;48.964;9.118;2024-03-08T04:28:23;98538.28;;;0.45;100.00
79709;BME280;69203;48.964;9.118;2024-03-08T04:29:25;98542.63;;;0.42;100.00
79709;BME280;69203;48.964;9.118;2024-03-08T04:30:26;98548.44;;;0.49;100.00
79709;BME280;69203;48.964;9.118;2024-03-08T04:31:29;98546.81;;;0.47;100.00
79709;BME280;69203;48.964;9.118;2024-03-08T04:32:31;98549.41;;;0.47;100.00
79709;BME280;69203;48.964;9.118;2024-03-08T04:33:32;98550.34;;;0.44;100.00
79709;BME280;69203;48.964;9.118;2024-03-08T04:34:35;98530.91;;;0.32;100.00
79709;BME280;69203;48.964;9.118;2024-03-08T04:35:35;98549.59;;;0.40;100.00
79709;BME280;69203;48.964;9.118;2024-03-08T04:36:37;98537.53;;;0.41;100.00
79709;BME280;69203;48.964;9.118;2024-03-08T04:37:38;98551.22;;;0.43;100.00
79709;BME280;69203;48.964;9.118;2024-03-08T04:38:38;98548.38;;;0.52;100.00
79709;BME280;69203;48.964;9.118;2024-03-08T04:39:41;98550.09;;;0.52;100.00
79709;BME280;69203;48.964;9.118;2024-03-08T04:40:41;98543.13;;;0.54;100.00
79709;BME280;69203;48.964;9.118;2024-03-08T04:41:42;98551.78;;;0.53;100.00
79709;BME280;69203;48.964;9.118;2024-03-08T04:42:43;98546.47;;;0.57;100.00
79709;BME280;69203;48.964;9.118;2024-03-08T04:43:44;98542.19;;;0.56;100.00
79709;BME280;69203;48.964;9.118;2024-03-08T04:44:44;98547.91;;;0.66;100.00
79709;BME280;69203;48.964;9.118;2024-03-08T04:45:45;98543.63;;;0.65;100.00
79709;BME280;69203;48.964;9.118;2024-03-08T04:46:45;98543.94;;;0.56;100.00
79709;BME280;69203;48.964;9.118;2024-03-08T04:47:47;98545.63;;;0.57;100.00
79709;BME280;69203;48.964;9.118;2024-03-08T04:48:47;98527.84;;;0.48;100.00
79709;BME280;69203;48.964;9.118;2024-03-08T04:49:47;98542.78;;;0.64;100.00
79709;BME280;69203;48.964;9.118;2024-03-08T04:50:48;98547.44;;;0.53;100.00
79709;BME280;69203;48.964;9.118;2024-03-08T04:51:49;98539.66;;;0.55;100.00
79709;BME280;69203;48.964;9.118;2024-03-08T04:52:49;98544.31;;;0.43;100.00
79709;BME280;69203;48.964;9.118;2024-03-08T04:53:50;98537.28;;;0.49;100.00
79709;BME280;69203;48.964;9.118;2024-03-08T04:54:53;98538.78;;;0.56;100.00
79709;BME280;69203;48.964;9.118;2024-03-08T04:55:54;98535.59;;;0.48;100.00
79709;BME280;69203;48.964;9.118;2024-03-08T04:56:55;98538.66;;;0.59;100.00
79709;BME280;69203;48.964;9.118;2024-03-08T04:57:55;98544.81;;;0.55;100.00
79709;BME280;69203;48.964;9.118;2024-03-08T04:58:56;98532.91;;;0.51;100.00
79709;BME280;69203;48.964;9.118;2024-03-08T04:59:56;98537.97;;;0.54;100.00
79709;BME280;69203;48.964;9.118;2024-03-08T05:00:58;98534.88;;;0.42;100.00
79709;BME280;69203;48.964;9.118;2024-03-08T05:01:59;98541.84;;;0.40;100.00
79709;BME280;69203;48.964;9.118;2024-03-08T05:02:59;98540.03;;;0.42;100.00
79709;BME280;69203;48.964;9.118;2024-03-08T05:04:00;98545.09;;;0.47;100.00
79709;BME280;69203;48.964;9.118;2024-03-08T05:05:00;98532.91;;;0.51;100.00
79709;BME280;69203;48.964;9.118;2024-03-08T05:06:01;98541.41;;;0.54;100.00
79709;BME280;69203;48.964;9.118;2024-03-08T05:07:01;98539.06;;;0.47;100.00
79709;BME280;69203;48.964;9.118;2024-03-08T05:08:03;98540.63;;;0.52;100.00
79709;BME280;69203;48.964;9.118;2024-03-08T05:09:03;98519.50;;;0.39;100.00
79709;BME280;69203;48.964;9.118;2024-03-08T05:10:13;98525.31;;;0.46;100.00
79709;BME280;69203;48.964;9.118;2024-03-08T05:11:17;98537.38;;;0.46;100.00
79709;BME280;69203;48.964;9.118;2024-03-08T05:12:21;98528.06;;;0.41;100.00
79709;BME280;69203;48.964;9.118;2024-03-08T05:13:22;98535.72;;;0.43;100.00
79709;BME280;69203;48.964;9.118;2024-03-08T05:14:23;98534.69;;;0.49;100.00
79709;BME280;69203;48.964;9.118;2024-03-08T05:15:25;98528.81;;;0.43;100.00
79709;BME280;69203;48.964;9.118;2024-03-08T05:16:25;98530.53;;;0.45;100.00
79709;BME280;69203;48.964;9.118;2024-03-08T05:17:26;98508.72;;;0.27;100.00
79709;BME280;69203;48.964;9.118;2024-03-08T05:18:26;98502.84;;;0.22;100.00
79709;BME280;69203;48.964;9.118;2024-03-08T05:19:28;98536.50;;;0.47;100.00
79709;BME280;69203;48.964;9.118;2024-03-08T05:20:30;98532.41;;;0.39;100.00
79709;BME280;69203;48.964;9.118;2024-03-08T05:21:31;98518.69;;;0.37;100.00
79709;BME280;69203;48.964;9.118;2024-03-08T05:22:31;98528.06;;;0.41;100.00
79709;BME280;69203;48.964;9.118;2024-03-08T05:23:32;98513.53;;;0.37;100.00